PABT/BTT METAR and TAF weather

Enter ICAO airport designator
Station Type Date Time Source
PABT METAR 2019/04/18 09:53 UTC NOAA

PABT 180953Z 32004KT 6SM -SN BR OVC023 M06/M08 A2958 RMK AO2 SLP031 T10561078 PNO $


Station Type Date Time Source
PABT Decoded METAR 2019/04/18 09:53 UTC NOAA

BETTLES AIRPORT, AK, United States (PABT) 66-54N 151-31W 196M
Apr 18, 2019 - 05:53 AM EDT / 2019.04.18 0953 UTC
Wind: from the NW (320 degrees) at 5 MPH (4 KT):0
Visibility: 6 mile(s):0
Sky conditions: overcast
Weather: light snow; mist
Temperature: 21.9 F (-5.6 C)
Windchill: 15 F (-9 C):1
Dew Point: 18.0 F (-7.8 C)
Relative Humidity: 84%
Pressure (altimeter): 29.58 in. Hg (1001 hPa)
ob: PABT 180953Z 32004KT 6SM -SN BR OVC023 M06/M08 A2958 RMK AO2 SLP031 T10561078 PNO
cycle: 10

Station Type Date Time Source
PABT TAF 2019/04/18 10:12 UTC NOAA

TAF
AMD PABT 181009Z 1810/1906 32005KT 6SM -SN BR OVC023
FM181800 35008KT P6SM SCT023 OVC050

Example: see airport list